»·PEaware :: UAL350 KPHX-KDEN

UAL350 :: KPHX-KDEN

FLIGHT INFORMATION

Flight Status: Arrived
Operator:
United Airlines
More flights by this operator :: More flights under this callsign
Pilot: Jeff H. (11722)
Aircraft: BOEING 737-300
(B733)
More flights by this aircraft type
Origin: KPHX Phoenix Sky Harbor Intl
United States
Destination: KDEN Denver Intl
United States
More flights between these airports :: More routes between these airports
Route: +YOTES5 YOOPR OURAY PEEKK3
File this flight plan on PilotEdge
Remarks:
Altitude:
(Current/Filed)
350ft
Speed:
(Current/Filed)
0kts
Departed: 21-Sep-17 02:05 PM
Arrived: 21-Sep-17 03:25 PM
Distance/Time
Traveled:
522nm/1:20
Distance/Time
To Go:
Arrived

Flight Plot

Page will automatically refresh every two minutes.


Map Options




Map Legend


Flown Route
Filed Route
Departure Airport
Arrival Airport
Navaid (VOR, NDB)
Fix

Horizontal Profiles

Position Reports

Time Latitude Longitude Heading Altitude Ground
Speed
21-Sep-17 13:54 33.437249 -111.994765 89 1134ft 0kts
21-Sep-17 13:55 33.437249 -111.994765 89 1134ft 0kts
21-Sep-17 13:56 33.437249 -111.994765 89 1134ft 0kts
21-Sep-17 13:57 33.437249 -111.994765 89 1134ft 0kts
21-Sep-17 13:58 33.437249 -111.994765 89 1134ft 0kts
21-Sep-17 13:59 33.437249 -111.994765 89 1134ft 0kts
21-Sep-17 14:00 33.437249 -111.994765 89 1134ft 0kts
21-Sep-17 14:01 33.437249 -111.994765 89 1134ft 0kts
21-Sep-17 14:02 33.437249 -111.994765 89 1134ft 0kts
21-Sep-17 14:03 33.437249 -111.994833 90 1134ft 0kts
21-Sep-17 14:04 33.437252 -111.995079 90 1135ft 0kts
21-Sep-17 14:05 33.437435 -111.994931 348 1135ft 3kts
21-Sep-17 14:06 33.438974 -111.995261 357 1140ft 10kts
21-Sep-17 14:07 33.439718 -111.992849 87 1141ft 7kts
21-Sep-17 14:08 33.440480 -111.992273 353 1143ft 10kts
21-Sep-17 14:09 33.441148 -112.023234 263 2234ft 176kts
21-Sep-17 14:10 33.450041 -112.087073 312 4572ft 232kts
21-Sep-17 14:11 33.502749 -112.144638 314 6656ft 291kts
21-Sep-17 14:12 33.575826 -112.173436 2 8396ft 312kts
21-Sep-17 14:13 33.649114 -112.129408 49 10201ft 320kts
21-Sep-17 14:14 33.713726 -112.046069 48 11845ft 354kts
21-Sep-17 14:15 33.777432 -111.956592 55 13344ft 376kts
21-Sep-17 14:16 33.842707 -111.853562 54 14829ft 400kts
21-Sep-17 14:17 33.910946 -111.745788 54 16340ft 423kts
21-Sep-17 14:18 33.982422 -111.632343 54 17841ft 436kts
21-Sep-17 14:19 34.077652 -111.541750 30 19354ft 451kts
21-Sep-17 14:20 34.185136 -111.459931 31 20878ft 468kts
21-Sep-17 14:21 34.295691 -111.374703 30 22387ft 483kts
21-Sep-17 14:22 34.409752 -111.286487 30 24182ft 491kts
21-Sep-17 14:23 34.525655 -111.196557 29 25733ft 503kts
21-Sep-17 14:24 34.644745 -111.105585 24 27196ft 509kts
21-Sep-17 14:25 34.769282 -111.024615 23 28706ft 510kts
21-Sep-17 14:26 34.892964 -110.943352 22 30207ft 502kts
21-Sep-17 14:27 35.015072 -110.863132 23 31673ft 500kts
21-Sep-17 14:28 35.136638 -110.782823 23 33164ft 494kts
21-Sep-17 14:29 35.255696 -110.703796 22 34644ft 485kts
21-Sep-17 14:30 35.375474 -110.624109 22 34940ft 500kts
21-Sep-17 14:31 35.498581 -110.541825 23 34936ft 512kts
21-Sep-17 14:32 35.624161 -110.457735 23 34952ft 517kts
21-Sep-17 14:33 35.728381 -110.337692 51 34949ft 530kts
21-Sep-17 14:34 35.822532 -110.201060 46 34964ft 531kts
21-Sep-17 14:35 35.919007 -110.064003 46 35001ft 532kts
21-Sep-17 14:36 36.015492 -109.926514 46 35073ft 532kts
21-Sep-17 14:37 36.112014 -109.789095 47 35091ft 532kts
21-Sep-17 14:38 36.207187 -109.652386 47 35092ft 532kts
21-Sep-17 14:39 36.302221 -109.515318 47 35092ft 533kts
21-Sep-17 14:40 36.397643 -109.377129 47 35097ft 533kts
21-Sep-17 14:41 36.493807 -109.237292 47 35099ft 534kts
21-Sep-17 14:42 36.588429 -109.099367 46 35044ft 533kts
21-Sep-17 14:43 36.683319 -108.960357 46 35016ft 527kts
21-Sep-17 14:44 36.777061 -108.822919 46 35001ft 524kts
21-Sep-17 14:45 36.870152 -108.685401 47 34991ft 523kts
21-Sep-17 14:46 36.963364 -108.547018 47 34993ft 523kts
21-Sep-17 14:47 37.056669 -108.407921 47 35006ft 522kts
21-Sep-17 14:48 37.149148 -108.269467 48 34991ft 517kts
21-Sep-17 14:49 37.239862 -108.133102 48 35031ft 517kts
21-Sep-17 14:50 37.330994 -107.995538 48 35083ft 517kts
21-Sep-17 14:51 37.422254 -107.857512 48 35075ft 517kts
21-Sep-17 14:52 37.513143 -107.719576 48 35103ft 516kts
21-Sep-17 14:53 37.603982 -107.581076 48 35094ft 516kts
21-Sep-17 14:54 37.694562 -107.442066 48 35105ft 516kts
21-Sep-17 14:55 37.784992 -107.302653 49 35127ft 516kts
21-Sep-17 14:56 37.875197 -107.163002 49 35110ft 517kts
21-Sep-17 14:57 37.965407 -107.022736 49 35036ft 518kts
21-Sep-17 14:58 38.053716 -106.884883 50 35022ft 513kts
21-Sep-17 14:59 38.140631 -106.749318 50 35028ft 504kts
21-Sep-17 15:00 38.228288 -106.611277 50 35020ft 504kts
21-Sep-17 15:01 38.324609 -106.483579 42 35031ft 504kts
21-Sep-17 15:02 38.424461 -106.359924 43 35052ft 504kts
21-Sep-17 15:03 38.522388 -106.237749 43 34009ft 478kts
21-Sep-17 15:04 38.614432 -106.122679 43 31192ft 455kts
21-Sep-17 15:05 38.703943 -106.010089 43 27550ft 454kts
21-Sep-17 15:06 38.791023 -105.900407 43 24818ft 432kts
21-Sep-17 15:07 38.868591 -105.802757 44 22113ft 415kts
21-Sep-17 15:08 38.948596 -105.700903 44 19236ft 401kts
21-Sep-17 15:09 39.025217 -105.603179 43 17183ft 376kts
21-Sep-17 15:10 39.101760 -105.505211 43 17174ft 394kts
21-Sep-17 15:11 39.178307 -105.406686 43 17166ft 370kts
21-Sep-17 15:12 39.248542 -105.316505 43 17097ft 356kts
21-Sep-17 15:13 39.312362 -105.250729 35 17061ft 354kts
21-Sep-17 15:14 39.400174 -105.164487 34 15424ft 344kts
21-Sep-17 15:15 39.475603 -105.091549 35 15021ft 343kts
21-Sep-17 15:16 39.549655 -105.018695 36 13565ft 335kts
21-Sep-17 15:17 39.609432 -104.960029 37 13011ft 331kts
21-Sep-17 15:18 39.693837 -104.876749 38 13023ft 330kts
21-Sep-17 15:19 39.761463 -104.840216 359 12961ft 318kts
21-Sep-17 15:20 39.843338 -104.839954 359 11924ft 278kts
21-Sep-17 15:21 39.919725 -104.839166 359 11011ft 272kts
21-Sep-17 15:22 39.995535 -104.839924 359 10344ft 273kts
21-Sep-17 15:23 40.067283 -104.829818 44 8939ft 256kts
21-Sep-17 15:24 40.083824 -104.746118 87 7971ft 238kts
21-Sep-17 15:25 40.057056 -104.686815 142 8015ft 200kts
21-Sep-17 15:26 40.004685 -104.685947 184 7756ft 201kts
21-Sep-17 15:27 39.946356 -104.686148 178 6514ft 209kts
21-Sep-17 15:28 39.894142 -104.686874 180 5397ft 185kts
21-Sep-17 15:29 39.866557 -104.687238 181 5342ft 9kts
21-Sep-17 15:30 39.865428 -104.685687 96 5351ft 8kts
21-Sep-17 15:31 39.861674 -104.685051 177 5355ft 15kts
21-Sep-17 15:32 39.860298 -104.681892 90 5367ft 10kts
21-Sep-17 15:33 39.859973 -104.677929 108 5371ft 3kts
21-Sep-17 15:34 39.859400 -104.677805 180 5371ft 0kts
21-Sep-17 15:35 39.859400 -104.677805 180 5371ft 0kts

Navigation Log

Ident Type
1. KPHX Airport
2. SPRKY Fix
3. GOALY Fix
4. POCCK Fix
5. MRBIL Fix
6. YOTES Fix
7. YOOPR Fix
8. OURAY Fix
9. KNOSA Fix
10. RAWAH Fix
11. FREZE Fix
12. PEEKK Fix
13. LARKS Fix
14. VRYHI Fix
15. EOLUS Fix
16. LOOOK Fix
17. LONGS Fix
18. CLFFF Fix
19. GREYS Fix
20. HIMAY Fix
21. KDEN Airport